createdAt,value
2018-07-01T00:02:30.276Z,70.70
2018-07-01T00:06:34.569Z,71.00
2018-07-01T00:10:38.975Z,72.10
2018-07-01T00:14:43.307Z,72.80
2018-07-01T00:18:47.635Z,73.40
2018-07-01T00:22:51.889Z,73.90
2018-07-01T00:26:56.237Z,75.20
2018-07-01T00:31:00.619Z,75.80
2018-07-01T00:35:04.958Z,75.60
2018-07-01T00:39:11.824Z,75.90
2018-07-01T00:43:16.166Z,77.70
2018-07-01T00:47:20.691Z,78.20
2018-07-01T00:51:25.182Z,79.40
2018-07-01T00:55:29.560Z,79.40
2018-07-01T00:59:34.333Z,79.40
2018-07-01T01:03:38.716Z,80.40
2018-07-01T01:07:43.073Z,81.90
2018-07-01T01:11:47.419Z,81.80
2018-07-01T01:15:51.795Z,83.20
2018-07-01T01:19:56.052Z,82.70
2018-07-01T01:24:00.529Z,83.00
2018-07-01T01:28:04.884Z,83.30
2018-07-01T01:32:09.261Z,84.00
2018-07-01T01:36:13.717Z,84.60
2018-07-01T01:40:20.701Z,85.30
2018-07-01T01:44:33.543Z,86.30
2018-07-01T01:48:43.048Z,87.40
2018-07-01T01:52:52.270Z,87.90
2018-07-01T01:57:07.040Z,88.00
2018-07-01T02:01:17.490Z,88.70
2018-07-01T02:05:25.376Z,89.20
2018-07-01T02:09:32.276Z,89.90
2018-07-01T02:13:38.480Z,90.00
2018-07-01T02:17:45.380Z,90.50
2018-07-01T02:21:49.900Z,91.10
2018-07-01T02:25:54.264Z,91.40
2018-07-01T02:29:58.924Z,91.50
2018-07-01T02:34:03.169Z,92.10
2018-07-01T02:38:07.475Z,92.40
2018-07-01T02:42:11.916Z,92.40
2018-07-01T02:46:16.192Z,92.60
2018-07-01T02:50:20.516Z,92.90
2018-07-01T02:54:25.106Z,92.80
2018-07-01T02:58:29.461Z,93.20
2018-07-01T03:02:33.774Z,93.40
2018-07-01T03:06:38.037Z,93.40
2018-07-01T03:10:42.312Z,93.60
2018-07-01T03:14:46.884Z,93.80
2018-07-01T03:18:51.124Z,94.10
2018-07-01T03:22:55.952Z,94.00
2018-07-01T03:27:00.440Z,94.10
2018-07-01T03:31:04.901Z,94.40
2018-07-01T03:35:09.148Z,94.40
2018-07-01T03:39:13.484Z,94.40
2018-07-01T03:43:18.042Z,94.30
2018-07-01T03:47:22.326Z,94.40
2018-07-01T03:51:26.652Z,94.60
2018-07-01T03:55:30.906Z,94.50
2018-07-01T03:59:35.166Z,94.40
2018-07-01T04:03:39.389Z,94.30
2018-07-01T04:07:43.830Z,94.10
2018-07-01T04:11:48.185Z,94.00
2018-07-01T04:15:52.410Z,93.90
2018-07-01T04:19:56.815Z,93.70
2018-07-01T04:24:01.177Z,93.20
2018-07-01T04:28:05.442Z,92.10
2018-07-01T04:32:09.893Z,92.10
2018-07-01T04:36:14.395Z,91.20
2018-07-01T04:40:18.709Z,91.10
2018-07-01T04:44:23.145Z,90.60
2018-07-01T04:48:27.473Z,89.80
2018-07-01T04:52:32.829Z,90.30
2018-07-01T04:56:37.103Z,86.70
2018-07-01T05:00:41.580Z,85.70
2018-07-01T05:04:45.862Z,81.80
2018-07-01T05:08:50.112Z,84.50
2018-07-01T05:12:54.337Z,84.50
2018-07-01T05:16:58.608Z,83.90
2018-07-01T05:21:02.863Z,84.70
2018-07-01T05:25:07.283Z,84.20
2018-07-01T05:29:11.509Z,84.80
2018-07-01T05:33:16.032Z,84.20
2018-07-01T05:37:20.452Z,85.10
2018-07-01T05:41:24.846Z,77.30
2018-07-01T05:45:29.202Z,75.40
2018-07-01T05:49:33.524Z,72.00
2018-07-01T05:53:37.921Z,74.70
2018-07-01T05:57:42.433Z,69.70
2018-07-01T06:01:46.912Z,70.50
2018-07-01T06:05:51.463Z,71.80
2018-07-01T06:09:55.723Z,73.80
2018-07-01T06:14:00.043Z,74.00
2018-07-01T06:18:04.385Z,65.00
2018-07-01T06:22:08.618Z,67.90
2018-07-01T06:26:12.988Z,65.80
2018-07-01T06:30:17.218Z,57.80
2018-07-01T06:34:21.602Z,56.50
2018-07-01T06:38:25.911Z,57.90
2018-07-01T06:42:30.222Z,54.30
2018-07-01T06:55:38.259Z,56.10
2018-07-01T06:59:43.228Z,56.40
2018-07-01T07:03:47.440Z,54.20
2018-07-01T07:07:51.893Z,55.50
2018-07-01T07:11:56.469Z,56.10
2018-07-01T07:16:00.713Z,55.10
2018-07-01T07:20:05.212Z,54.10
2018-07-01T07:24:09.457Z,53.20
2018-07-01T07:28:13.788Z,54.80
2018-07-01T07:32:18.012Z,50.50
2018-07-01T07:36:22.324Z,54.40
2018-07-01T07:40:26.734Z,51.20
2018-07-01T07:44:30.999Z,52.80
2018-07-01T07:48:35.712Z,51.50
2018-07-01T07:52:39.992Z,49.50
2018-07-01T07:56:44.520Z,47.60
2018-07-01T08:00:48.936Z,47.90
2018-07-01T08:04:53.186Z,45.80
2018-07-01T08:08:57.458Z,47.60
2018-07-01T08:13:01.912Z,46.80
2018-07-01T08:17:06.116Z,49.10
2018-07-01T08:21:10.539Z,47.50
2018-07-01T08:25:14.848Z,49.40
2018-07-01T08:29:19.195Z,47.50
2018-07-01T08:33:23.466Z,46.80
2018-07-01T08:37:27.683Z,47.60
2018-07-01T08:41:41.665Z,46.80
2018-07-01T08:45:45.907Z,47.50
2018-07-01T08:49:50.332Z,45.10
2018-07-01T08:53:57.814Z,45.30
2018-07-01T08:58:08.538Z,44.50
2018-07-01T09:24:24.293Z,38.90
2018-07-01T09:28:36.804Z,42.60
2018-07-01T09:32:47.160Z,36.60
2018-07-01T09:36:52.172Z,37.90
2018-07-01T09:40:56.417Z,37.30
2018-07-01T09:45:00.733Z,39.80
2018-07-01T09:49:05.243Z,38.50
2018-07-01T09:53:09.565Z,39.40
2018-07-01T09:57:13.869Z,34.80
2018-07-01T10:01:18.237Z,36.50
2018-07-01T10:05:22.458Z,36.60
2018-07-01T10:09:27.207Z,36.40
2018-07-01T10:13:31.489Z,34.70
2018-07-01T10:17:35.784Z,34.80
2018-07-01T10:21:40.252Z,35.70
2018-07-01T10:25:44.595Z,33.90
2018-07-01T10:29:48.889Z,37.20
2018-07-01T10:33:53.181Z,33.40
2018-07-01T10:37:57.400Z,36.10
2018-07-01T10:42:01.768Z,33.00
2018-07-01T10:46:06.101Z,34.90
2018-07-01T10:50:10.315Z,34.30
2018-07-01T10:54:14.674Z,31.50
2018-07-01T10:58:18.944Z,31.00
2018-07-01T11:02:23.580Z,33.20
2018-07-01T11:06:41.463Z,31.30
2018-07-01T11:10:45.812Z,29.80
2018-07-01T11:14:50.081Z,33.30
2018-07-01T11:18:54.353Z,31.50
2018-07-01T11:22:58.614Z,31.50
2018-07-01T11:27:03.291Z,32.60
2018-07-01T11:31:07.703Z,32.30
2018-07-01T11:35:12.171Z,32.90
2018-07-01T11:39:16.438Z,31.60
2018-07-01T11:43:20.837Z,28.70
2018-07-01T11:47:25.288Z,28.50
2018-07-01T11:51:29.554Z,28.30
2018-07-01T11:55:33.990Z,30.30
2018-07-01T11:59:38.254Z,31.70
2018-07-01T12:03:42.640Z,30.00
2018-07-01T12:07:47.089Z,29.40
2018-07-01T12:11:51.354Z,29.60
2018-07-01T12:15:55.837Z,27.80
2018-07-01T12:20:00.360Z,27.90
2018-07-01T12:24:04.606Z,28.20
2018-07-01T12:28:08.887Z,25.30
2018-07-01T12:32:13.435Z,24.50
2018-07-01T12:36:17.673Z,26.60
2018-07-01T12:40:22.018Z,26.40
2018-07-01T12:44:26.434Z,27.40
2018-07-01T12:48:30.801Z,28.40
2018-07-01T12:52:35.237Z,27.90
2018-07-01T12:56:39.643Z,27.30
2018-07-01T13:00:43.942Z,25.20
2018-07-01T13:04:48.188Z,24.80
2018-07-01T13:08:52.541Z,26.20
2018-07-01T13:12:57.044Z,26.10
2018-07-01T13:17:01.393Z,26.70
2018-07-01T13:21:05.753Z,26.10
2018-07-01T13:25:10.078Z,29.10
2018-07-01T13:29:14.581Z,34.20
2018-07-01T13:33:18.936Z,38.30
2018-07-01T13:37:30.101Z,41.30
2018-07-01T13:41:43.574Z,35.30
2018-07-01T13:45:54.182Z,30.70
2018-07-01T13:50:03.932Z,27.20
2018-07-01T13:54:15.619Z,25.90
2018-07-01T13:58:25.261Z,25.30
2018-07-01T14:02:36.029Z,26.20
2018-07-01T14:06:45.391Z,26.90
2018-07-01T14:10:54.787Z,28.40
2018-07-01T14:15:04.916Z,27.80
2018-07-01T14:19:17.192Z,29.50
2018-07-01T14:23:26.847Z,28.00
2018-07-01T14:27:36.386Z,27.30
2018-07-01T14:31:45.334Z,25.00
2018-07-01T14:35:54.890Z,26.10
2018-07-01T14:40:02.761Z,29.00
2018-07-01T14:44:14.196Z,29.70
2018-07-01T14:48:23.225Z,26.70
2018-07-01T14:52:33.541Z,24.70
2018-07-01T14:56:42.929Z,24.60
2018-07-01T15:00:53.011Z,28.70
2018-07-01T15:05:03.456Z,31.20
2018-07-01T15:09:22.338Z,32.10
2018-07-01T15:13:34.424Z,34.70
2018-07-01T15:17:43.852Z,37.60
2018-07-01T15:21:55.902Z,32.90
2018-07-01T15:26:06.973Z,30.50
2018-07-01T15:30:16.522Z,30.70
2018-07-01T15:34:27.248Z,34.90
2018-07-01T15:38:37.098Z,35.70
2018-07-01T15:42:47.091Z,36.50
2018-07-01T15:46:57.974Z,37.90
2018-07-01T15:51:07.710Z,41.50
2018-07-01T15:55:21.220Z,40.70
2018-07-01T15:59:30.500Z,40.90
2018-07-01T16:03:41.154Z,42.60
2018-07-01T16:07:52.789Z,42.80
2018-07-01T16:12:02.493Z,44.00
2018-07-01T16:16:12.399Z,46.20
2018-07-01T16:20:23.256Z,43.50
2018-07-01T16:24:36.111Z,44.80
2018-07-01T16:28:49.683Z,41.90
2018-07-01T16:33:01.639Z,42.70
2018-07-01T16:37:12.363Z,43.00
2018-07-01T16:41:21.905Z,43.10
2018-07-01T16:45:31.957Z,44.70
2018-07-01T16:49:43.028Z,43.90
2018-07-01T16:53:53.829Z,44.40
2018-07-01T16:58:05.024Z,46.10
2018-07-01T17:02:16.028Z,45.00
2018-07-01T17:06:27.045Z,44.70
2018-07-01T17:10:41.333Z,44.90
2018-07-01T17:14:51.579Z,45.00
2018-07-01T17:19:03.025Z,45.50
2018-07-01T17:23:15.006Z,46.00
2018-07-01T17:27:24.803Z,47.20
2018-07-01T17:31:40.268Z,46.90
2018-07-01T17:35:49.709Z,47.60
2018-07-01T17:40:01.317Z,47.10
2018-07-01T17:44:13.412Z,48.90
2018-07-01T17:48:25.610Z,48.80
2018-07-01T17:52:38.982Z,47.90
2018-07-01T17:56:48.508Z,47.00
2018-07-01T18:00:59.198Z,48.60
2018-07-01T18:05:09.897Z,51.90
2018-07-01T18:09:21.863Z,50.20
2018-07-01T18:13:31.897Z,50.30
2018-07-01T18:17:43.118Z,49.70
2018-07-01T18:22:21.724Z,52.10
2018-07-01T18:27:08.876Z,52.00
2018-07-01T18:31:21.133Z,53.80
2018-07-01T18:35:31.397Z,51.60
2018-07-01T18:39:41.353Z,54.10
2018-07-01T18:43:52.280Z,53.10
2018-07-01T18:48:04.276Z,55.90
2018-07-01T18:52:14.928Z,55.20
2018-07-01T18:56:24.147Z,54.50
2018-07-01T19:00:34.987Z,56.10
2018-07-01T19:04:49.107Z,55.90
2018-07-01T19:08:59.572Z,55.70
2018-07-01T19:13:09.409Z,58.90
2018-07-01T19:17:19.400Z,58.50
2018-07-01T19:21:30.264Z,57.80
2018-07-01T19:25:41.451Z,57.10
2018-07-01T19:29:53.071Z,57.70
2018-07-01T19:34:01.833Z,58.00
2018-07-01T19:38:11.518Z,58.40
2018-07-01T19:42:21.445Z,57.70
2018-07-01T19:46:26.489Z,59.50
2018-07-01T19:50:31.975Z,60.30
2018-07-01T19:54:36.331Z,60.20
2018-07-01T19:58:41.749Z,59.50
2018-07-01T20:02:46.092Z,60.90
2018-07-01T20:06:50.463Z,62.10
2018-07-01T20:10:54.842Z,60.00
2018-07-01T20:14:59.095Z,60.70
2018-07-01T20:19:03.605Z,61.80
2018-07-01T20:23:08.003Z,62.50
2018-07-01T20:27:12.226Z,62.30
2018-07-01T20:31:16.573Z,62.20
2018-07-01T20:35:20.786Z,61.00
2018-07-01T20:39:25.202Z,61.70
2018-07-01T20:43:29.585Z,62.20
2018-07-01T20:47:33.832Z,62.70
2018-07-01T20:51:38.188Z,62.10
2018-07-01T20:55:42.627Z,61.90
2018-07-01T20:59:46.977Z,62.60
2018-07-01T21:03:51.308Z,63.70
2018-07-01T21:07:55.824Z,65.20
2018-07-01T21:12:00.064Z,64.90
2018-07-01T21:16:04.467Z,66.00
2018-07-01T21:20:08.733Z,67.20
2018-07-01T21:24:13.105Z,67.10
2018-07-01T21:28:17.431Z,67.00
2018-07-01T21:32:21.719Z,67.40
2018-07-01T21:36:26.219Z,67.30
2018-07-01T21:40:30.495Z,69.50
2018-07-01T21:44:34.860Z,70.40
2018-07-01T21:48:39.225Z,70.90
2018-07-01T21:52:43.527Z,69.50
2018-07-01T21:56:48.125Z,72.30
2018-07-01T22:00:52.392Z,73.40
2018-07-01T22:04:56.756Z,73.50
2018-07-01T22:09:01.230Z,73.50
2018-07-01T22:13:15.153Z,73.10
2018-07-01T22:17:19.614Z,73.80
2018-07-01T22:21:23.951Z,73.30
2018-07-01T22:25:28.293Z,74.70
2018-07-01T22:29:32.704Z,74.60
2018-07-01T22:33:36.938Z,75.40
2018-07-01T22:37:41.232Z,75.40
2018-07-01T22:41:46.351Z,76.10
2018-07-01T22:45:50.598Z,76.40
2018-07-01T22:49:54.921Z,77.80
2018-07-01T22:53:59.322Z,79.30
2018-07-01T22:58:03.611Z,79.00
2018-07-01T23:03:19.274Z,80.20
2018-07-01T23:07:23.512Z,79.70
2018-07-01T23:11:27.797Z,79.50
2018-07-01T23:15:32.143Z,79.70
2018-07-01T23:19:36.408Z,79.60
2018-07-01T23:23:40.842Z,80.40
2018-07-01T23:27:45.908Z,81.10
2018-07-01T23:31:50.148Z,82.80
2018-07-01T23:35:54.453Z,82.90
2018-07-01T23:39:58.866Z,83.60
2018-07-01T23:44:03.167Z,83.60
2018-07-01T23:48:07.633Z,82.80
2018-07-01T23:52:11.975Z,83.00
2018-07-01T23:56:16.293Z,81.70
